Аэропорт: Бесовец. Петрозаводск

ICAO: ULPB

METAR:
2021-01-20 03:00:00
ULPB 200300Z AUTO VRB01MPS 9999 -SN ///026/// M05/M06 Q1010 RMK QFE754/1005
METAR:
Информация по данной станции не доступна